sensor_id;sensor_type;location;lat;lon;timestamp;temperature;humidity
34460;DHT22;20704;51.260;22.558;2023-08-08T00:00:34;15.20;1.00
34460;DHT22;20704;51.260;22.558;2023-08-08T00:02:57;15.20;15.30
34460;DHT22;20704;51.260;22.558;2023-08-08T00:04:59;15.20;37.90
34460;DHT22;20704;51.260;22.558;2023-08-08T00:07:02;15.30;42.30
34460;DHT22;20704;51.260;22.558;2023-08-08T00:09:04;15.20;92.70
34460;DHT22;20704;51.260;22.558;2023-08-08T00:11:07;15.20;99.90
34460;DHT22;20704;51.260;22.558;2023-08-08T00:13:09;15.20;99.90
34460;DHT22;20704;51.260;22.558;2023-08-08T00:15:12;15.20;99.90
34460;DHT22;20704;51.260;22.558;2023-08-08T00:17:14;15.20;99.90
34460;DHT22;20704;51.260;22.558;2023-08-08T00:19:16;15.10;99.90
34460;DHT22;20704;51.260;22.558;2023-08-08T00:21:19;15.10;99.90
34460;DHT22;20704;51.260;22.558;2023-08-08T00:23:21;15.10;99.90
34460;DHT22;20704;51.260;22.558;2023-08-08T00:25:24;15.00;99.90
34460;DHT22;20704;51.260;22.558;2023-08-08T00:27:26;15.00;99.90
34460;DHT22;20704;51.260;22.558;2023-08-08T00:29:29;15.10;99.90
34460;DHT22;20704;51.260;22.558;2023-08-08T00:31:31;15.00;99.90
34460;DHT22;20704;51.260;22.558;2023-08-08T00:33:33;15.00;99.90
34460;DHT22;20704;51.260;22.558;2023-08-08T00:35:36;15.00;99.90
34460;DHT22;20704;51.260;22.558;2023-08-08T00:37:38;15.00;99.90
34460;DHT22;20704;51.260;22.558;2023-08-08T00:39:41;15.00;99.90
34460;DHT22;20704;51.260;22.558;2023-08-08T00:41:47;14.90;1.00
34460;DHT22;20704;51.260;22.558;2023-08-08T00:43:50;15.00;1.00
34460;DHT22;20704;51.260;22.558;2023-08-08T00:45:52;14.90;1.00
34460;DHT22;20704;51.260;22.558;2023-08-08T00:47:55;14.90;1.00
34460;DHT22;20704;51.260;22.558;2023-08-08T00:49:57;14.90;1.00
34460;DHT22;20704;51.260;22.558;2023-08-08T00:52:00;15.00;1.00
34460;DHT22;20704;51.260;22.558;2023-08-08T00:54:03;15.00;1.00
34460;DHT22;20704;51.260;22.558;2023-08-08T00:56:06;15.00;1.00
34460;DHT22;20704;51.260;22.558;2023-08-08T00:58:08;15.00;1.00
34460;DHT22;20704;51.260;22.558;2023-08-08T01:00:11;15.00;1.00
34460;DHT22;20704;51.260;22.558;2023-08-08T01:02:14;15.00;1.00
34460;DHT22;20704;51.260;22.558;2023-08-08T01:04:17;15.10;1.00
34460;DHT22;20704;51.260;22.558;2023-08-08T01:06:39;15.00;1.00
34460;DHT22;20704;51.260;22.558;2023-08-08T01:08:48;15.00;1.00
34460;DHT22;20704;51.260;22.558;2023-08-08T01:10:52;15.00;1.00
34460;DHT22;20704;51.260;22.558;2023-08-08T01:13:07;15.10;1.00
34460;DHT22;20704;51.260;22.558;2023-08-08T01:15:11;15.10;1.00
34460;DHT22;20704;51.260;22.558;2023-08-08T01:17:15;15.10;1.00
34460;DHT22;20704;51.260;22.558;2023-08-08T01:19:25;15.10;1.00
34460;DHT22;20704;51.260;22.558;2023-08-08T01:21:29;15.00;1.00
34460;DHT22;20704;51.260;22.558;2023-08-08T01:23:42;15.00;1.00
34460;DHT22;20704;51.260;22.558;2023-08-08T01:25:46;14.40;1.00
34460;DHT22;20704;51.260;22.558;2023-08-08T01:27:50;15.00;1.00
34460;DHT22;20704;51.260;22.558;2023-08-08T01:29:53;15.00;1.00
34460;DHT22;20704;51.260;22.558;2023-08-08T01:31:55;14.90;1.00
34460;DHT22;20704;51.260;22.558;2023-08-08T01:33:58;15.00;1.00
34460;DHT22;20704;51.260;22.558;2023-08-08T01:36:12;15.00;1.00
34460;DHT22;20704;51.260;22.558;2023-08-08T01:40:29;14.90;1.00
34460;DHT22;20704;51.260;22.558;2023-08-08T01:42:32;15.00;1.00
34460;DHT22;20704;51.260;22.558;2023-08-08T01:44:34;14.90;1.00
34460;DHT22;20704;51.260;22.558;2023-08-08T01:46:37;14.90;1.00
34460;DHT22;20704;51.260;22.558;2023-08-08T01:48:44;14.90;1.00
34460;DHT22;20704;51.260;22.558;2023-08-08T01:50:47;14.90;1.00
34460;DHT22;20704;51.260;22.558;2023-08-08T01:52:49;14.90;1.00
34460;DHT22;20704;51.260;22.558;2023-08-08T01:54:52;15.00;1.00
34460;DHT22;20704;51.260;22.558;2023-08-08T01:56:54;15.00;1.00
34460;DHT22;20704;51.260;22.558;2023-08-08T01:58:56;15.00;1.00
34460;DHT22;20704;51.260;22.558;2023-08-08T02:00:59;15.00;1.00
34460;DHT22;20704;51.260;22.558;2023-08-08T02:03:02;15.10;1.00
34460;DHT22;20704;51.260;22.558;2023-08-08T02:05:04;15.00;99.90
34460;DHT22;20704;51.260;22.558;2023-08-08T02:07:08;15.10;99.90
34460;DHT22;20704;51.260;22.558;2023-08-08T02:09:10;15.10;99.90
34460;DHT22;20704;51.260;22.558;2023-08-08T02:11:13;15.10;99.90
34460;DHT22;20704;51.260;22.558;2023-08-08T02:13:15;15.20;99.90
34460;DHT22;20704;51.260;22.558;2023-08-08T02:15:18;15.20;99.90
34460;DHT22;20704;51.260;22.558;2023-08-08T02:17:21;15.20;99.90
34460;DHT22;20704;51.260;22.558;2023-08-08T02:19:23;15.20;99.90
34460;DHT22;20704;51.260;22.558;2023-08-08T02:21:26;15.20;99.90
34460;DHT22;20704;51.260;22.558;2023-08-08T02:23:28;14.50;99.90
34460;DHT22;20704;51.260;22.558;2023-08-08T02:25:31;15.30;99.90
34460;DHT22;20704;51.260;22.558;2023-08-08T02:27:33;15.30;99.90
34460;DHT22;20704;51.260;22.558;2023-08-08T02:29:35;15.30;99.90
34460;DHT22;20704;51.260;22.558;2023-08-08T02:31:37;15.30;99.90
34460;DHT22;20704;51.260;22.558;2023-08-08T02:33:40;15.30;99.90
34460;DHT22;20704;51.260;22.558;2023-08-08T02:35:42;15.30;99.90
34460;DHT22;20704;51.260;22.558;2023-08-08T02:37:44;15.30;99.90
34460;DHT22;20704;51.260;22.558;2023-08-08T02:39:47;15.30;99.90
34460;DHT22;20704;51.260;22.558;2023-08-08T02:41:49;15.30;99.90
34460;DHT22;20704;51.260;22.558;2023-08-08T02:43:51;15.30;99.90
34460;DHT22;20704;51.260;22.558;2023-08-08T02:45:54;15.20;99.90
34460;DHT22;20704;51.260;22.558;2023-08-08T02:47:56;15.20;99.90
34460;DHT22;20704;51.260;22.558;2023-08-08T02:49:58;15.30;99.90
34460;DHT22;20704;51.260;22.558;2023-08-08T02:52:01;15.30;99.90
34460;DHT22;20704;51.260;22.558;2023-08-08T02:54:03;15.20;99.90
34460;DHT22;20704;51.260;22.558;2023-08-08T02:56:06;15.30;99.90
34460;DHT22;20704;51.260;22.558;2023-08-08T02:58:08;15.30;99.90
34460;DHT22;20704;51.260;22.558;2023-08-08T03:00:11;15.30;99.90
34460;DHT22;20704;51.260;22.558;2023-08-08T03:02:14;15.30;99.90
34460;DHT22;20704;51.260;22.558;2023-08-08T03:04:16;15.20;78.80
34460;DHT22;20704;51.260;22.558;2023-08-08T03:06:18;15.30;37.20
34460;DHT22;20704;51.260;22.558;2023-08-08T03:08:21;15.30;1.00
34460;DHT22;20704;51.260;22.558;2023-08-08T03:10:23;15.30;1.00
34460;DHT22;20704;51.260;22.558;2023-08-08T03:12:26;15.30;1.00
34460;DHT22;20704;51.260;22.558;2023-08-08T03:14:28;15.30;1.00
34460;DHT22;20704;51.260;22.558;2023-08-08T03:16:30;15.20;1.00
34460;DHT22;20704;51.260;22.558;2023-08-08T03:18:33;15.30;99.90
34460;DHT22;20704;51.260;22.558;2023-08-08T03:20:35;15.20;99.90
34460;DHT22;20704;51.260;22.558;2023-08-08T03:22:38;15.30;99.90
34460;DHT22;20704;51.260;22.558;2023-08-08T03:24:40;15.30;99.90
34460;DHT22;20704;51.260;22.558;2023-08-08T03:26:42;15.30;99.90
34460;DHT22;20704;51.260;22.558;2023-08-08T03:28:45;15.20;1.00
34460;DHT22;20704;51.260;22.558;2023-08-08T03:30:47;15.30;37.10
34460;DHT22;20704;51.260;22.558;2023-08-08T03:32:49;15.20;1.00
34460;DHT22;20704;51.260;22.558;2023-08-08T03:34:52;15.30;1.00
34460;DHT22;20704;51.260;22.558;2023-08-08T03:36:54;15.30;1.00
34460;DHT22;20704;51.260;22.558;2023-08-08T03:38:57;15.30;1.00
34460;DHT22;20704;51.260;22.558;2023-08-08T03:40:59;15.40;99.90
34460;DHT22;20704;51.260;22.558;2023-08-08T03:43:02;15.40;99.90
34460;DHT22;20704;51.260;22.558;2023-08-08T03:45:04;15.40;55.40
34460;DHT22;20704;51.260;22.558;2023-08-08T03:47:08;15.50;1.00
34460;DHT22;20704;51.260;22.558;2023-08-08T03:49:20;15.50;1.00
34460;DHT22;20704;51.260;22.558;2023-08-08T03:51:23;15.50;99.90
34460;DHT22;20704;51.260;22.558;2023-08-08T03:53:25;15.60;78.00
34460;DHT22;20704;51.260;22.558;2023-08-08T03:55:28;15.60;99.90
34460;DHT22;20704;51.260;22.558;2023-08-08T03:57:31;15.60;93.10
34460;DHT22;20704;51.260;22.558;2023-08-08T03:59:33;15.70;1.00
34460;DHT22;20704;51.260;22.558;2023-08-08T04:01:36;15.70;99.90
34460;DHT22;20704;51.260;22.558;2023-08-08T04:03:40;15.70;99.90
34460;DHT22;20704;51.260;22.558;2023-08-08T04:05:46;15.80;1.00
34460;DHT22;20704;51.260;22.558;2023-08-08T04:07:49;15.80;1.00
34460;DHT22;20704;51.260;22.558;2023-08-08T04:09:51;15.90;99.90
34460;DHT22;20704;51.260;22.558;2023-08-08T04:11:54;15.90;1.00
34460;DHT22;20704;51.260;22.558;2023-08-08T04:13:56;15.90;99.90
34460;DHT22;20704;51.260;22.558;2023-08-08T04:15:58;16.10;99.90
34460;DHT22;20704;51.260;22.558;2023-08-08T04:18:01;16.20;99.90
34460;DHT22;20704;51.260;22.558;2023-08-08T04:20:04;16.30;1.00
34460;DHT22;20704;51.260;22.558;2023-08-08T04:22:07;16.50;99.90
34460;DHT22;20704;51.260;22.558;2023-08-08T04:24:10;16.80;99.90
34460;DHT22;20704;51.260;22.558;2023-08-08T04:26:14;16.90;1.00
34460;DHT22;20704;51.260;22.558;2023-08-08T04:28:17;17.10;99.90
34460;DHT22;20704;51.260;22.558;2023-08-08T04:30:19;17.10;99.90
34460;DHT22;20704;51.260;22.558;2023-08-08T04:32:22;17.20;10.20
34460;DHT22;20704;51.260;22.558;2023-08-08T04:34:24;17.50;1.00
34460;DHT22;20704;51.260;22.558;2023-08-08T04:36:27;17.60;1.00
34460;DHT22;20704;51.260;22.558;2023-08-08T04:38:29;17.90;99.90
34460;DHT22;20704;51.260;22.558;2023-08-08T04:40:32;18.20;99.90
34460;DHT22;20704;51.260;22.558;2023-08-08T04:42:34;18.30;99.90
34460;DHT22;20704;51.260;22.558;2023-08-08T04:44:36;18.50;99.90
34460;DHT22;20704;51.260;22.558;2023-08-08T04:46:39;18.70;99.20
34460;DHT22;20704;51.260;22.558;2023-08-08T04:48:41;18.90;46.50
34460;DHT22;20704;51.260;22.558;2023-08-08T04:50:46;19.10;12.20
34460;DHT22;20704;51.260;22.558;2023-08-08T04:52:48;19.30;1.00
34460;DHT22;20704;51.260;22.558;2023-08-08T04:54:50;19.80;1.00
34460;DHT22;20704;51.260;22.558;2023-08-08T04:56:53;20.10;1.00
34460;DHT22;20704;51.260;22.558;2023-08-08T04:58:55;20.40;1.00
34460;DHT22;20704;51.260;22.558;2023-08-08T05:00:57;20.80;1.00
34460;DHT22;20704;51.260;22.558;2023-08-08T05:03:00;21.20;1.00
34460;DHT22;20704;51.260;22.558;2023-08-08T05:05:04;21.50;99.90
34460;DHT22;20704;51.260;22.558;2023-08-08T05:07:06;21.80;99.90
34460;DHT22;20704;51.260;22.558;2023-08-08T05:09:09;21.90;99.90
34460;DHT22;20704;51.260;22.558;2023-08-08T05:11:11;22.20;99.90
34460;DHT22;20704;51.260;22.558;2023-08-08T05:13:14;22.10;1.00
34460;DHT22;20704;51.260;22.558;2023-08-08T05:15:16;21.90;1.00
34460;DHT22;20704;51.260;22.558;2023-08-08T05:17:18;21.60;99.90
34460;DHT22;20704;51.260;22.558;2023-08-08T05:19:21;21.10;1.00
34460;DHT22;20704;51.260;22.558;2023-08-08T05:21:23;20.70;99.90
34460;DHT22;20704;51.260;22.558;2023-08-08T05:23:26;20.20;99.90
34460;DHT22;20704;51.260;22.558;2023-08-08T05:25:28;19.80;99.90
34460;DHT22;20704;51.260;22.558;2023-08-08T05:27:30;19.60;99.90
34460;DHT22;20704;51.260;22.558;2023-08-08T05:29:33;19.50;1.00
34460;DHT22;20704;51.260;22.558;2023-08-08T05:31:36;19.20;99.90
34460;DHT22;20704;51.260;22.558;2023-08-08T05:33:38;19.20;99.90
34460;DHT22;20704;51.260;22.558;2023-08-08T05:35:41;19.20;99.90
34460;DHT22;20704;51.260;22.558;2023-08-08T05:37:43;18.10;99.90
34460;DHT22;20704;51.260;22.558;2023-08-08T05:39:45;20.80;99.90
34460;DHT22;20704;51.260;22.558;2023-08-08T05:41:48;19.50;99.90
34460;DHT22;20704;51.260;22.558;2023-08-08T05:43:50;19.70;99.90
34460;DHT22;20704;51.260;22.558;2023-08-08T05:45:53;19.90;99.90
34460;DHT22;20704;51.260;22.558;2023-08-08T05:47:55;19.50;99.90
34460;DHT22;20704;51.260;22.558;2023-08-08T05:49:58;19.50;99.90
34460;DHT22;20704;51.260;22.558;2023-08-08T05:52:01;19.50;99.90
34460;DHT22;20704;51.260;22.558;2023-08-08T05:54:04;19.60;99.90
34460;DHT22;20704;51.260;22.558;2023-08-08T05:56:07;19.50;99.90
34460;DHT22;20704;51.260;22.558;2023-08-08T05:58:11;19.40;99.90
34460;DHT22;20704;51.260;22.558;2023-08-08T06:00:13;19.40;99.90
34460;DHT22;20704;51.260;22.558;2023-08-08T06:02:16;19.40;99.90
34460;DHT22;20704;51.260;22.558;2023-08-08T06:04:18;19.40;99.90
34460;DHT22;20704;51.260;22.558;2023-08-08T06:06:21;19.50;99.90
34460;DHT22;20704;51.260;22.558;2023-08-08T06:08:23;19.50;99.90
34460;DHT22;20704;51.260;22.558;2023-08-08T06:10:25;19.70;99.90
34460;DHT22;20704;51.260;22.558;2023-08-08T06:12:28;19.70;99.90
34460;DHT22;20704;51.260;22.558;2023-08-08T06:14:31;19.70;99.90
34460;DHT22;20704;51.260;22.558;2023-08-08T06:16:33;19.90;99.90
34460;DHT22;20704;51.260;22.558;2023-08-08T06:18:36;20.00;99.90
34460;DHT22;20704;51.260;22.558;2023-08-08T06:20:39;20.10;99.90
34460;DHT22;20704;51.260;22.558;2023-08-08T06:22:42;20.20;1.00
34460;DHT22;20704;51.260;22.558;2023-08-08T06:24:44;20.50;1.00
34460;DHT22;20704;51.260;22.558;2023-08-08T06:26:47;20.90;1.00
34460;DHT22;20704;51.260;22.558;2023-08-08T06:28:49;21.20;1.00
34460;DHT22;20704;51.260;22.558;2023-08-08T06:30:53;21.60;1.00
34460;DHT22;20704;51.260;22.558;2023-08-08T06:32:56;22.00;99.90
34460;DHT22;20704;51.260;22.558;2023-08-08T06:34:58;22.20;99.90
34460;DHT22;20704;51.260;22.558;2023-08-08T06:37:01;22.50;99.90
34460;DHT22;20704;51.260;22.558;2023-08-08T06:39:03;22.60;99.90
34460;DHT22;20704;51.260;22.558;2023-08-08T06:41:05;22.70;99.90
34460;DHT22;20704;51.260;22.558;2023-08-08T06:43:08;23.00;99.90
34460;DHT22;20704;51.260;22.558;2023-08-08T06:45:10;23.00;99.90
34460;DHT22;20704;51.260;22.558;2023-08-08T06:47:12;22.70;99.90
34460;DHT22;20704;51.260;22.558;2023-08-08T06:49:15;22.80;99.90
34460;DHT22;20704;51.260;22.558;2023-08-08T06:51:17;23.00;99.90
34460;DHT22;20704;51.260;22.558;2023-08-08T06:53:19;23.20;99.90
34460;DHT22;20704;51.260;22.558;2023-08-08T06:55:22;23.00;99.90
34460;DHT22;20704;51.260;22.558;2023-08-08T06:57:25;23.00;99.90
34460;DHT22;20704;51.260;22.558;2023-08-08T06:59:28;22.90;99.90
34460;DHT22;20704;51.260;22.558;2023-08-08T07:01:30;23.10;99.90
34460;DHT22;20704;51.260;22.558;2023-08-08T07:03:32;22.90;99.90
34460;DHT22;20704;51.260;22.558;2023-08-08T07:05:35;22.70;99.90
34460;DHT22;20704;51.260;22.558;2023-08-08T07:07:37;22.70;99.90
34460;DHT22;20704;51.260;22.558;2023-08-08T07:09:40;22.50;99.90
34460;DHT22;20704;51.260;22.558;2023-08-08T07:11:44;22.60;99.90
34460;DHT22;20704;51.260;22.558;2023-08-08T07:13:47;22.90;99.90
34460;DHT22;20704;51.260;22.558;2023-08-08T07:15:50;22.90;99.90
34460;DHT22;20704;51.260;22.558;2023-08-08T07:17:52;22.40;99.90
34460;DHT22;20704;51.260;22.558;2023-08-08T07:19:55;22.60;99.90
34460;DHT22;20704;51.260;22.558;2023-08-08T07:21:59;22.50;99.90
34460;DHT22;20704;51.260;22.558;2023-08-08T07:24:02;22.40;99.90
34460;DHT22;20704;51.260;22.558;2023-08-08T07:26:05;22.60;99.90
34460;DHT22;20704;51.260;22.558;2023-08-08T07:28:07;22.60;99.90
34460;DHT22;20704;51.260;22.558;2023-08-08T07:30:11;22.40;99.90
34460;DHT22;20704;51.260;22.558;2023-08-08T07:32:14;22.50;99.90
34460;DHT22;20704;51.260;22.558;2023-08-08T07:34:17;22.30;99.90
34460;DHT22;20704;51.260;22.558;2023-08-08T07:36:19;22.30;99.90
34460;DHT22;20704;51.260;22.558;2023-08-08T07:38:22;22.50;99.90
34460;DHT22;20704;51.260;22.558;2023-08-08T07:40:24;22.60;99.90
34460;DHT22;20704;51.260;22.558;2023-08-08T07:42:26;22.90;99.90
34460;DHT22;20704;51.260;22.558;2023-08-08T07:44:29;22.90;99.90
34460;DHT22;20704;51.260;22.558;2023-08-08T07:46:33;22.90;99.90
34460;DHT22;20704;51.260;22.558;2023-08-08T07:48:36;23.00;99.90
34460;DHT22;20704;51.260;22.558;2023-08-08T07:50:39;23.00;99.90
34460;DHT22;20704;51.260;22.558;2023-08-08T07:52:41;23.30;99.90
34460;DHT22;20704;51.260;22.558;2023-08-08T07:54:44;23.10;99.90
34460;DHT22;20704;51.260;22.558;2023-08-08T07:56:46;23.50;99.90
34460;DHT22;20704;51.260;22.558;2023-08-08T07:58:49;24.00;99.90
34460;DHT22;20704;51.260;22.558;2023-08-08T08:00:51;23.90;99.90
34460;DHT22;20704;51.260;22.558;2023-08-08T08:02:55;24.20;99.90
34460;DHT22;20704;51.260;22.558;2023-08-08T08:04:58;24.00;99.90
34460;DHT22;20704;51.260;22.558;2023-08-08T08:07:00;24.20;99.90
34460;DHT22;20704;51.260;22.558;2023-08-08T08:09:03;24.00;99.90
34460;DHT22;20704;51.260;22.558;2023-08-08T08:11:05;23.70;99.90
34460;DHT22;20704;51.260;22.558;2023-08-08T08:13:08;23.20;99.90
34460;DHT22;20704;51.260;22.558;2023-08-08T08:15:10;22.80;99.90
34460;DHT22;20704;51.260;22.558;2023-08-08T08:17:13;22.40;99.90
34460;DHT22;20704;51.260;22.558;2023-08-08T08:19:15;22.20;99.90
34460;DHT22;20704;51.260;22.558;2023-08-08T08:21:18;21.80;99.90
34460;DHT22;20704;51.260;22.558;2023-08-08T08:23:20;22.50;99.90
34460;DHT22;20704;51.260;22.558;2023-08-08T08:25:22;22.90;99.90
34460;DHT22;20704;51.260;22.558;2023-08-08T08:27:25;23.30;99.90
34460;DHT22;20704;51.260;22.558;2023-08-08T08:29:27;23.20;99.90
34460;DHT22;20704;51.260;22.558;2023-08-08T08:31:29;22.90;99.90
34460;DHT22;20704;51.260;22.558;2023-08-08T08:33:32;22.70;99.90
34460;DHT22;20704;51.260;22.558;2023-08-08T08:35:35;22.70;99.90
34460;DHT22;20704;51.260;22.558;2023-08-08T08:37:38;22.50;99.90
34460;DHT22;20704;51.260;22.558;2023-08-08T08:39:40;22.30;99.90
34460;DHT22;20704;51.260;22.558;2023-08-08T08:41:49;22.30;99.90
34460;DHT22;20704;51.260;22.558;2023-08-08T08:43:56;22.10;99.90
34460;DHT22;20704;51.260;22.558;2023-08-08T08:46:01;21.90;99.90
34460;DHT22;20704;51.260;22.558;2023-08-08T08:48:10;21.90;99.90
34460;DHT22;20704;51.260;22.558;2023-08-08T08:50:15;21.70;99.90
34460;DHT22;20704;51.260;22.558;2023-08-08T08:52:20;21.50;99.90
34460;DHT22;20704;51.260;22.558;2023-08-08T08:54:23;21.40;99.90
34460;DHT22;20704;51.260;22.558;2023-08-08T08:56:26;21.20;99.90
34460;DHT22;20704;51.260;22.558;2023-08-08T08:58:29;21.40;99.90
34460;DHT22;20704;51.260;22.558;2023-08-08T09:00:31;21.40;99.90
34460;DHT22;20704;51.260;22.558;2023-08-08T09:02:35;21.40;99.90
34460;DHT22;20704;51.260;22.558;2023-08-08T09:04:39;21.60;99.90
34460;DHT22;20704;51.260;22.558;2023-08-08T09:06:43;22.10;99.90
34460;DHT22;20704;51.260;22.558;2023-08-08T09:08:47;22.20;99.90
34460;DHT22;20704;51.260;22.558;2023-08-08T09:10:51;22.80;99.90
34460;DHT22;20704;51.260;22.558;2023-08-08T09:12:53;23.10;99.90
34460;DHT22;20704;51.260;22.558;2023-08-08T09:14:56;22.90;99.90
34460;DHT22;20704;51.260;22.558;2023-08-08T09:16:59;23.30;99.90
34460;DHT22;20704;51.260;22.558;2023-08-08T09:19:01;23.30;99.90
34460;DHT22;20704;51.260;22.558;2023-08-08T09:21:05;23.40;99.90
34460;DHT22;20704;51.260;22.558;2023-08-08T09:23:09;23.50;99.90
34460;DHT22;20704;51.260;22.558;2023-08-08T09:25:11;23.40;99.90
34460;DHT22;20704;51.260;22.558;2023-08-08T09:27:14;23.80;99.90
34460;DHT22;20704;51.260;22.558;2023-08-08T09:29:16;23.90;99.90
34460;DHT22;20704;51.260;22.558;2023-08-08T09:31:19;24.00;99.90
34460;DHT22;20704;51.260;22.558;2023-08-08T09:33:21;23.50;99.90
34460;DHT22;20704;51.260;22.558;2023-08-08T09:35:24;23.10;99.90
34460;DHT22;20704;51.260;22.558;2023-08-08T09:37:28;22.80;99.90
34460;DHT22;20704;51.260;22.558;2023-08-08T09:39:31;22.90;99.90
34460;DHT22;20704;51.260;22.558;2023-08-08T09:41:33;22.90;99.90
34460;DHT22;20704;51.260;22.558;2023-08-08T09:43:37;23.00;99.90
34460;DHT22;20704;51.260;22.558;2023-08-08T09:45:39;23.10;99.90
34460;DHT22;20704;51.260;22.558;2023-08-08T09:47:44;23.30;99.90
34460;DHT22;20704;51.260;22.558;2023-08-08T09:49:46;23.70;99.90
34460;DHT22;20704;51.260;22.558;2023-08-08T09:51:50;23.80;99.90
34460;DHT22;20704;51.260;22.558;2023-08-08T09:53:53;23.50;99.90
34460;DHT22;20704;51.260;22.558;2023-08-08T09:55:57;23.40;99.90
34460;DHT22;20704;51.260;22.558;2023-08-08T09:58:00;23.10;99.90
34460;DHT22;20704;51.260;22.558;2023-08-08T10:00:05;22.90;99.90
34460;DHT22;20704;51.260;22.558;2023-08-08T10:02:14;23.00;99.90
34460;DHT22;20704;51.260;22.558;2023-08-08T10:04:20;23.10;99.90
34460;DHT22;20704;51.260;22.558;2023-08-08T10:06:23;23.50;99.90
34460;DHT22;20704;51.260;22.558;2023-08-08T10:08:26;23.90;99.90
34460;DHT22;20704;51.260;22.558;2023-08-08T10:10:29;23.90;99.90
34460;DHT22;20704;51.260;22.558;2023-08-08T10:12:32;23.60;99.90
34460;DHT22;20704;51.260;22.558;2023-08-08T10:14:37;23.50;99.90
34460;DHT22;20704;51.260;22.558;2023-08-08T10:16:42;23.20;99.90
34460;DHT22;20704;51.260;22.558;2023-08-08T10:19:02;23.00;99.90
34460;DHT22;20704;51.260;22.558;2023-08-08T10:21:05;22.70;99.90
34460;DHT22;20704;51.260;22.558;2023-08-08T10:23:07;22.60;99.90
34460;DHT22;20704;51.260;22.558;2023-08-08T10:25:18;22.50;99.90
34460;DHT22;20704;51.260;22.558;2023-08-08T10:27:28;22.40;99.90
34460;DHT22;20704;51.260;22.558;2023-08-08T10:29:33;22.20;99.90
34460;DHT22;20704;51.260;22.558;2023-08-08T10:31:35;22.00;99.90
34460;DHT22;20704;51.260;22.558;2023-08-08T10:33:42;21.90;99.90
34460;DHT22;20704;51.260;22.558;2023-08-08T10:38:08;22.20;99.90
34460;DHT22;20704;51.260;22.558;2023-08-08T10:40:17;22.20;99.90
34460;DHT22;20704;51.260;22.558;2023-08-08T10:42:22;22.20;99.90
34460;DHT22;20704;51.260;22.558;2023-08-08T10:44:25;22.20;99.90
34460;DHT22;20704;51.260;22.558;2023-08-08T10:46:32;22.10;99.90
34460;DHT22;20704;51.260;22.558;2023-08-08T10:48:36;22.10;99.90
34460;DHT22;20704;51.260;22.558;2023-08-08T10:50:42;22.10;99.90
34460;DHT22;20704;51.260;22.558;2023-08-08T10:52:51;22.00;99.90
34460;DHT22;20704;51.260;22.558;2023-08-08T10:54:55;22.40;99.90
34460;DHT22;20704;51.260;22.558;2023-08-08T10:56:58;22.50;99.90
34460;DHT22;20704;51.260;22.558;2023-08-08T10:59:13;22.50;99.90
34460;DHT22;20704;51.260;22.558;2023-08-08T11:01:17;22.50;99.90
34460;DHT22;20704;51.260;22.558;2023-08-08T11:03:20;22.40;99.90
34460;DHT22;20704;51.260;22.558;2023-08-08T11:05:23;22.30;99.90
34460;DHT22;20704;51.260;22.558;2023-08-08T11:07:28;22.40;99.90
34460;DHT22;20704;51.260;22.558;2023-08-08T11:09:30;22.40;99.90
34460;DHT22;20704;51.260;22.558;2023-08-08T11:11:43;22.40;99.90
34460;DHT22;20704;51.260;22.558;2023-08-08T11:13:45;22.50;99.90
34460;DHT22;20704;51.260;22.558;2023-08-08T11:15:48;22.90;99.90
34460;DHT22;20704;51.260;22.558;2023-08-08T11:17:50;23.00;99.90
34460;DHT22;20704;51.260;22.558;2023-08-08T11:19:55;22.90;99.90
34460;DHT22;20704;51.260;22.558;2023-08-08T11:21:57;23.10;99.90
34460;DHT22;20704;51.260;22.558;2023-08-08T11:24:00;23.40;99.90
34460;DHT22;20704;51.260;22.558;2023-08-08T11:26:03;23.30;99.90
34460;DHT22;20704;51.260;22.558;2023-08-08T11:28:08;23.20;99.90
34460;DHT22;20704;51.260;22.558;2023-08-08T11:30:11;23.00;99.90
34460;DHT22;20704;51.260;22.558;2023-08-08T11:32:16;22.90;99.90
34460;DHT22;20704;51.260;22.558;2023-08-08T11:34:19;22.80;99.90
34460;DHT22;20704;51.260;22.558;2023-08-08T11:36:26;23.00;99.90
34460;DHT22;20704;51.260;22.558;2023-08-08T11:38:29;22.80;99.90
34460;DHT22;20704;51.260;22.558;2023-08-08T11:40:33;22.70;99.90
34460;DHT22;20704;51.260;22.558;2023-08-08T11:42:35;22.50;99.90
34460;DHT22;20704;51.260;22.558;2023-08-08T11:44:38;22.40;99.90
34460;DHT22;20704;51.260;22.558;2023-08-08T11:46:44;22.20;99.90
34460;DHT22;20704;51.260;22.558;2023-08-08T11:48:48;22.50;99.90
34460;DHT22;20704;51.260;22.558;2023-08-08T11:50:52;22.60;99.90
34460;DHT22;20704;51.260;22.558;2023-08-08T11:52:56;22.70;99.90
34460;DHT22;20704;51.260;22.558;2023-08-08T11:54:58;22.70;99.90
34460;DHT22;20704;51.260;22.558;2023-08-08T11:57:03;23.00;99.90
34460;DHT22;20704;51.260;22.558;2023-08-08T11:59:05;23.10;99.90
34460;DHT22;20704;51.260;22.558;2023-08-08T12:01:09;23.00;99.90
34460;DHT22;20704;51.260;22.558;2023-08-08T12:03:12;22.90;99.90
34460;DHT22;20704;51.260;22.558;2023-08-08T12:05:20;22.80;99.90
34460;DHT22;20704;51.260;22.558;2023-08-08T12:07:24;22.80;99.90
34460;DHT22;20704;51.260;22.558;2023-08-08T12:09:33;22.70;99.90
34460;DHT22;20704;51.260;22.558;2023-08-08T12:11:36;22.60;99.90
34460;DHT22;20704;51.260;22.558;2023-08-08T12:13:44;22.50;99.90
34460;DHT22;20704;51.260;22.558;2023-08-08T12:15:46;22.40;99.90
34460;DHT22;20704;51.260;22.558;2023-08-08T12:17:51;22.40;99.90
34460;DHT22;20704;51.260;22.558;2023-08-08T12:19:53;22.60;99.90
34460;DHT22;20704;51.260;22.558;2023-08-08T12:21:56;22.60;99.90
34460;DHT22;20704;51.260;22.558;2023-08-08T12:23:58;22.60;99.90
34460;DHT22;20704;51.260;22.558;2023-08-08T12:26:04;22.40;99.90
34460;DHT22;20704;51.260;22.558;2023-08-08T12:28:09;22.60;99.90
34460;DHT22;20704;51.260;22.558;2023-08-08T12:30:12;22.80;99.90
34460;DHT22;20704;51.260;22.558;2023-08-08T12:32:14;22.90;99.90
34460;DHT22;20704;51.260;22.558;2023-08-08T12:34:17;22.90;99.90
34460;DHT22;20704;51.260;22.558;2023-08-08T12:36:19;22.90;99.90
34460;DHT22;20704;51.260;22.558;2023-08-08T12:38:23;22.90;99.90
34460;DHT22;20704;51.260;22.558;2023-08-08T12:40:25;23.00;99.90
34460;DHT22;20704;51.260;22.558;2023-08-08T12:42:28;23.10;99.90
34460;DHT22;20704;51.260;22.558;2023-08-08T12:44:30;23.20;99.90
34460;DHT22;20704;51.260;22.558;2023-08-08T12:46:33;23.20;99.90
34460;DHT22;20704;51.260;22.558;2023-08-08T12:48:36;23.20;99.90
34460;DHT22;20704;51.260;22.558;2023-08-08T12:50:38;23.00;99.90
34460;DHT22;20704;51.260;22.558;2023-08-08T12:52:41;22.90;99.90
34460;DHT22;20704;51.260;22.558;2023-08-08T12:54:43;22.90;99.90